sensor_id;sensor_type;location;lat;lon;timestamp;P1;durP1;ratioP1;P2;durP2;ratioP2
81191;SDS011;70665;47.652;-2.730;2024-02-15T00:03:05;10.65;;;4.63;;
81191;SDS011;70665;47.652;-2.730;2024-02-15T00:05:38;12.07;;;4.90;;
81191;SDS011;70665;47.652;-2.730;2024-02-15T00:08:04;11.35;;;4.15;;
81191;SDS011;70665;47.652;-2.730;2024-02-15T00:10:30;11.75;;;4.15;;
81191;SDS011;70665;47.652;-2.730;2024-02-15T00:12:55;10.27;;;4.05;;
81191;SDS011;70665;47.652;-2.730;2024-02-15T00:15:21;12.68;;;4.40;;
81191;SDS011;70665;47.652;-2.730;2024-02-15T00:20:12;11.15;;;4.55;;
81191;SDS011;70665;47.652;-2.730;2024-02-15T00:25:06;11.07;;;3.92;;
81191;SDS011;70665;47.652;-2.730;2024-02-15T00:27:34;14.82;;;3.88;;
81191;SDS011;70665;47.652;-2.730;2024-02-15T00:30:00;10.00;;;3.38;;
81191;SDS011;70665;47.652;-2.730;2024-02-15T00:32:26;7.25;;;4.00;;
81191;SDS011;70665;47.652;-2.730;2024-02-15T00:37:18;12.43;;;3.92;;
81191;SDS011;70665;47.652;-2.730;2024-02-15T00:42:10;11.98;;;3.50;;
81191;SDS011;70665;47.652;-2.730;2024-02-15T00:47:02;6.85;;;3.60;;
81191;SDS011;70665;47.652;-2.730;2024-02-15T00:51:53;11.73;;;3.92;;
81191;SDS011;70665;47.652;-2.730;2024-02-15T00:56:44;8.55;;;4.05;;
81191;SDS011;70665;47.652;-2.730;2024-02-15T00:59:10;9.88;;;3.70;;
81191;SDS011;70665;47.652;-2.730;2024-02-15T01:01:36;8.38;;;3.72;;
81191;SDS011;70665;47.652;-2.730;2024-02-15T01:04:06;10.82;;;4.03;;
81191;SDS011;70665;47.652;-2.730;2024-02-15T01:06:32;9.15;;;3.95;;
81191;SDS011;70665;47.652;-2.730;2024-02-15T01:08:59;10.32;;;4.57;;
81191;SDS011;70665;47.652;-2.730;2024-02-15T01:11:26;8.07;;;4.45;;
81191;SDS011;70665;47.652;-2.730;2024-02-15T01:13:53;10.73;;;3.63;;
81191;SDS011;70665;47.652;-2.730;2024-02-15T01:16:20;8.27;;;3.63;;
81191;SDS011;70665;47.652;-2.730;2024-02-15T01:18:46;9.25;;;4.10;;
81191;SDS011;70665;47.652;-2.730;2024-02-15T01:23:38;11.05;;;3.40;;
81191;SDS011;70665;47.652;-2.730;2024-02-15T01:26:04;11.77;;;4.20;;
81191;SDS011;70665;47.652;-2.730;2024-02-15T01:28:30;9.15;;;4.05;;
81191;SDS011;70665;47.652;-2.730;2024-02-15T01:30:55;8.15;;;3.83;;
81191;SDS011;70665;47.652;-2.730;2024-02-15T01:35:47;5.53;;;3.33;;
81191;SDS011;70665;47.652;-2.730;2024-02-15T01:38:13;8.35;;;4.07;;
81191;SDS011;70665;47.652;-2.730;2024-02-15T01:40:39;6.15;;;3.75;;
81191;SDS011;70665;47.652;-2.730;2024-02-15T01:43:05;9.00;;;3.97;;
81191;SDS011;70665;47.652;-2.730;2024-02-15T01:45:30;7.18;;;3.83;;
81191;SDS011;70665;47.652;-2.730;2024-02-15T01:47:56;8.82;;;3.80;;
81191;SDS011;70665;47.652;-2.730;2024-02-15T01:50:25;9.27;;;4.20;;
81191;SDS011;70665;47.652;-2.730;2024-02-15T01:52:53;6.25;;;3.58;;
81191;SDS011;70665;47.652;-2.730;2024-02-15T01:55:22;8.55;;;3.63;;
81191;SDS011;70665;47.652;-2.730;2024-02-15T01:57:48;10.95;;;3.83;;
81191;SDS011;70665;47.652;-2.730;2024-02-15T02:00:15;8.70;;;3.65;;
81191;SDS011;70665;47.652;-2.730;2024-02-15T02:02:43;7.60;;;3.50;;
81191;SDS011;70665;47.652;-2.730;2024-02-15T02:05:10;8.30;;;3.38;;
81191;SDS011;70665;47.652;-2.730;2024-02-15T02:07:36;8.20;;;3.38;;
81191;SDS011;70665;47.652;-2.730;2024-02-15T02:10:02;6.60;;;3.22;;
81191;SDS011;70665;47.652;-2.730;2024-02-15T02:12:29;9.35;;;4.07;;
81191;SDS011;70665;47.652;-2.730;2024-02-15T02:14:56;9.57;;;3.42;;
81191;SDS011;70665;47.652;-2.730;2024-02-15T02:17:21;6.32;;;3.20;;
81191;SDS011;70665;47.652;-2.730;2024-02-15T02:19:47;7.38;;;3.15;;
81191;SDS011;70665;47.652;-2.730;2024-02-15T02:22:16;7.55;;;3.30;;
81191;SDS011;70665;47.652;-2.730;2024-02-15T02:27:33;6.22;;;3.22;;
81191;SDS011;70665;47.652;-2.730;2024-02-15T02:29:59;7.90;;;2.90;;
81191;SDS011;70665;47.652;-2.730;2024-02-15T02:32:26;9.82;;;3.63;;
81191;SDS011;70665;47.652;-2.730;2024-02-15T02:34:52;6.25;;;3.22;;
81191;SDS011;70665;47.652;-2.730;2024-02-15T02:37:22;6.82;;;3.55;;
81191;SDS011;70665;47.652;-2.730;2024-02-15T02:39:50;9.30;;;3.53;;
81191;SDS011;70665;47.652;-2.730;2024-02-15T02:44:41;5.57;;;3.67;;
81191;SDS011;70665;47.652;-2.730;2024-02-15T02:47:07;8.48;;;3.40;;
81191;SDS011;70665;47.652;-2.730;2024-02-15T02:49:32;5.65;;;3.03;;
81191;SDS011;70665;47.652;-2.730;2024-02-15T02:52:00;7.97;;;3.38;;
81191;SDS011;70665;47.652;-2.730;2024-02-15T02:54:26;10.60;;;3.47;;
81191;SDS011;70665;47.652;-2.730;2024-02-15T02:56:53;6.80;;;2.88;;
81191;SDS011;70665;47.652;-2.730;2024-02-15T02:59:19;4.68;;;2.83;;
81191;SDS011;70665;47.652;-2.730;2024-02-15T03:01:44;6.80;;;3.22;;
81191;SDS011;70665;47.652;-2.730;2024-02-15T03:06:37;9.68;;;3.20;;
81191;SDS011;70665;47.652;-2.730;2024-02-15T03:09:02;7.22;;;3.45;;
81191;SDS011;70665;47.652;-2.730;2024-02-15T03:11:31;7.82;;;2.88;;
81191;SDS011;70665;47.652;-2.730;2024-02-15T03:13:58;9.50;;;3.33;;
81191;SDS011;70665;47.652;-2.730;2024-02-15T03:18:51;7.53;;;3.13;;
81191;SDS011;70665;47.652;-2.730;2024-02-15T03:21:17;8.00;;;3.13;;
81191;SDS011;70665;47.652;-2.730;2024-02-15T03:26:09;6.43;;;3.10;;
81191;SDS011;70665;47.652;-2.730;2024-02-15T03:28:36;6.88;;;3.60;;
81191;SDS011;70665;47.652;-2.730;2024-02-15T03:31:02;6.65;;;3.33;;
81191;SDS011;70665;47.652;-2.730;2024-02-15T03:33:28;7.75;;;3.15;;
81191;SDS011;70665;47.652;-2.730;2024-02-15T03:35:59;7.03;;;3.53;;
81191;SDS011;70665;47.652;-2.730;2024-02-15T03:38:25;7.88;;;3.58;;
81191;SDS011;70665;47.652;-2.730;2024-02-15T03:40:54;7.70;;;3.90;;
81191;SDS011;70665;47.652;-2.730;2024-02-15T03:43:20;11.10;;;3.30;;
81191;SDS011;70665;47.652;-2.730;2024-02-15T03:45:46;6.18;;;3.53;;
81191;SDS011;70665;47.652;-2.730;2024-02-15T03:48:11;8.98;;;3.65;;
81191;SDS011;70665;47.652;-2.730;2024-02-15T03:50:37;6.07;;;2.85;;
81191;SDS011;70665;47.652;-2.730;2024-02-15T03:55:29;5.35;;;2.92;;
81191;SDS011;70665;47.652;-2.730;2024-02-15T03:57:54;9.30;;;3.10;;
81191;SDS011;70665;47.652;-2.730;2024-02-15T04:00:21;5.55;;;2.75;;
81191;SDS011;70665;47.652;-2.730;2024-02-15T04:02:47;5.68;;;3.65;;
81191;SDS011;70665;47.652;-2.730;2024-02-15T04:05:15;6.90;;;3.08;;
81191;SDS011;70665;47.652;-2.730;2024-02-15T04:07:43;7.13;;;3.78;;
81191;SDS011;70665;47.652;-2.730;2024-02-15T04:10:11;5.43;;;3.22;;
81191;SDS011;70665;47.652;-2.730;2024-02-15T04:12:37;5.10;;;2.75;;
81191;SDS011;70665;47.652;-2.730;2024-02-15T04:15:03;5.68;;;2.78;;
81191;SDS011;70665;47.652;-2.730;2024-02-15T04:17:37;8.90;;;3.70;;
81191;SDS011;70665;47.652;-2.730;2024-02-15T04:20:03;8.88;;;3.33;;
81191;SDS011;70665;47.652;-2.730;2024-02-15T04:22:31;6.03;;;3.28;;
81191;SDS011;70665;47.652;-2.730;2024-02-15T04:25:02;6.28;;;2.88;;
81191;SDS011;70665;47.652;-2.730;2024-02-15T04:27:29;5.85;;;2.90;;
81191;SDS011;70665;47.652;-2.730;2024-02-15T04:29:54;8.23;;;3.45;;
81191;SDS011;70665;47.652;-2.730;2024-02-15T04:32:21;6.57;;;3.03;;
81191;SDS011;70665;47.652;-2.730;2024-02-15T04:34:46;8.70;;;3.10;;
81191;SDS011;70665;47.652;-2.730;2024-02-15T04:37:13;5.70;;;2.90;;
81191;SDS011;70665;47.652;-2.730;2024-02-15T04:42:05;4.57;;;2.83;;
81191;SDS011;70665;47.652;-2.730;2024-02-15T04:44:32;6.22;;;3.58;;
81191;SDS011;70665;47.652;-2.730;2024-02-15T04:47:00;5.85;;;3.10;;
81191;SDS011;70665;47.652;-2.730;2024-02-15T04:49:29;6.78;;;3.20;;
81191;SDS011;70665;47.652;-2.730;2024-02-15T04:51:54;5.28;;;3.08;;
81191;SDS011;70665;47.652;-2.730;2024-02-15T04:54:22;8.30;;;3.60;;
81191;SDS011;70665;47.652;-2.730;2024-02-15T04:56:48;10.52;;;3.55;;
81191;SDS011;70665;47.652;-2.730;2024-02-15T04:59:15;7.13;;;3.15;;
81191;SDS011;70665;47.652;-2.730;2024-02-15T05:01:41;6.85;;;2.92;;
81191;SDS011;70665;47.652;-2.730;2024-02-15T05:04:10;6.70;;;3.30;;
81191;SDS011;70665;47.652;-2.730;2024-02-15T05:06:36;8.02;;;3.78;;
81191;SDS011;70665;47.652;-2.730;2024-02-15T05:09:02;5.47;;;3.25;;
81191;SDS011;70665;47.652;-2.730;2024-02-15T05:11:38;4.80;;;2.85;;
81191;SDS011;70665;47.652;-2.730;2024-02-15T05:14:12;7.45;;;3.42;;
81191;SDS011;70665;47.652;-2.730;2024-02-15T05:16:43;5.55;;;3.25;;
81191;SDS011;70665;47.652;-2.730;2024-02-15T05:19:12;7.03;;;3.63;;
81191;SDS011;70665;47.652;-2.730;2024-02-15T05:21:39;7.60;;;3.90;;
81191;SDS011;70665;47.652;-2.730;2024-02-15T05:24:05;8.80;;;3.60;;
81191;SDS011;70665;47.652;-2.730;2024-02-15T05:26:31;6.55;;;2.92;;
81191;SDS011;70665;47.652;-2.730;2024-02-15T05:28:57;7.18;;;3.45;;
81191;SDS011;70665;47.652;-2.730;2024-02-15T05:31:23;5.15;;;3.38;;
81191;SDS011;70665;47.652;-2.730;2024-02-15T05:33:52;6.60;;;3.33;;
81191;SDS011;70665;47.652;-2.730;2024-02-15T05:36:19;6.10;;;3.45;;
81191;SDS011;70665;47.652;-2.730;2024-02-15T05:38:48;7.28;;;3.50;;
81191;SDS011;70665;47.652;-2.730;2024-02-15T05:41:17;6.10;;;3.33;;
81191;SDS011;70665;47.652;-2.730;2024-02-15T05:43:44;6.10;;;3.22;;
81191;SDS011;70665;47.652;-2.730;2024-02-15T05:46:11;6.43;;;3.42;;
81191;SDS011;70665;47.652;-2.730;2024-02-15T05:51:04;6.28;;;3.38;;
81191;SDS011;70665;47.652;-2.730;2024-02-15T05:53:30;6.07;;;2.90;;
81191;SDS011;70665;47.652;-2.730;2024-02-15T05:55:58;5.07;;;3.10;;
81191;SDS011;70665;47.652;-2.730;2024-02-15T06:00:50;7.57;;;2.65;;
81191;SDS011;70665;47.652;-2.730;2024-02-15T06:03:16;7.53;;;3.33;;
81191;SDS011;70665;47.652;-2.730;2024-02-15T06:05:42;5.50;;;2.70;;
81191;SDS011;70665;47.652;-2.730;2024-02-15T06:08:09;7.75;;;3.63;;
81191;SDS011;70665;47.652;-2.730;2024-02-15T06:10:37;8.02;;;3.55;;
81191;SDS011;70665;47.652;-2.730;2024-02-15T06:15:29;8.68;;;3.40;;
81191;SDS011;70665;47.652;-2.730;2024-02-15T06:17:54;6.82;;;2.83;;
81191;SDS011;70665;47.652;-2.730;2024-02-15T06:20:20;5.32;;;2.83;;
81191;SDS011;70665;47.652;-2.730;2024-02-15T06:22:47;5.45;;;3.53;;
81191;SDS011;70665;47.652;-2.730;2024-02-15T06:25:14;10.57;;;3.10;;
81191;SDS011;70665;47.652;-2.730;2024-02-15T06:27:46;7.15;;;3.45;;
81191;SDS011;70665;47.652;-2.730;2024-02-15T06:30:12;9.88;;;3.20;;
81191;SDS011;70665;47.652;-2.730;2024-02-15T06:35:41;6.35;;;3.33;;
81191;SDS011;70665;47.652;-2.730;2024-02-15T06:38:24;7.28;;;3.22;;
81191;SDS011;70665;47.652;-2.730;2024-02-15T06:41:08;7.18;;;3.40;;
81191;SDS011;70665;47.652;-2.730;2024-02-15T06:43:34;9.95;;;3.55;;
81191;SDS011;70665;47.652;-2.730;2024-02-15T06:46:01;7.90;;;2.95;;
81191;SDS011;70665;47.652;-2.730;2024-02-15T06:48:27;5.00;;;2.67;;
81191;SDS011;70665;47.652;-2.730;2024-02-15T06:50:53;4.53;;;2.72;;
81191;SDS011;70665;47.652;-2.730;2024-02-15T06:53:19;8.50;;;3.22;;
81191;SDS011;70665;47.652;-2.730;2024-02-15T06:55:47;5.22;;;3.22;;
81191;SDS011;70665;47.652;-2.730;2024-02-15T06:58:16;5.63;;;3.20;;
81191;SDS011;70665;47.652;-2.730;2024-02-15T07:03:08;6.20;;;2.90;;
81191;SDS011;70665;47.652;-2.730;2024-02-15T07:05:34;8.07;;;3.83;;
81191;SDS011;70665;47.652;-2.730;2024-02-15T07:08:00;4.95;;;2.65;;
81191;SDS011;70665;47.652;-2.730;2024-02-15T07:10:26;7.88;;;3.38;;
81191;SDS011;70665;47.652;-2.730;2024-02-15T07:12:52;5.78;;;2.67;;
81191;SDS011;70665;47.652;-2.730;2024-02-15T07:15:17;5.82;;;3.00;;
81191;SDS011;70665;47.652;-2.730;2024-02-15T07:17:43;4.82;;;3.13;;
81191;SDS011;70665;47.652;-2.730;2024-02-15T07:20:12;8.93;;;2.70;;
81191;SDS011;70665;47.652;-2.730;2024-02-15T07:22:42;6.75;;;2.80;;
81191;SDS011;70665;47.652;-2.730;2024-02-15T07:25:10;5.22;;;2.72;;
81191;SDS011;70665;47.652;-2.730;2024-02-15T07:30:02;6.88;;;2.80;;
81191;SDS011;70665;47.652;-2.730;2024-02-15T07:32:29;4.85;;;2.72;;
81191;SDS011;70665;47.652;-2.730;2024-02-15T07:34:56;5.28;;;2.90;;
81191;SDS011;70665;47.652;-2.730;2024-02-15T07:39:52;10.98;;;2.97;;
81191;SDS011;70665;47.652;-2.730;2024-02-15T07:42:22;4.60;;;2.33;;
81191;SDS011;70665;47.652;-2.730;2024-02-15T07:44:53;6.47;;;2.72;;
81191;SDS011;70665;47.652;-2.730;2024-02-15T07:47:20;6.00;;;2.72;;
81191;SDS011;70665;47.652;-2.730;2024-02-15T07:49:50;8.48;;;2.63;;
81191;SDS011;70665;47.652;-2.730;2024-02-15T07:52:20;4.25;;;2.35;;
81191;SDS011;70665;47.652;-2.730;2024-02-15T07:54:47;5.80;;;2.58;;
81191;SDS011;70665;47.652;-2.730;2024-02-15T07:57:14;5.22;;;2.53;;
81191;SDS011;70665;47.652;-2.730;2024-02-15T08:02:07;3.97;;;2.70;;
81191;SDS011;70665;47.652;-2.730;2024-02-15T08:04:33;5.22;;;2.60;;
81191;SDS011;70665;47.652;-2.730;2024-02-15T08:07:05;10.60;;;3.28;;
81191;SDS011;70665;47.652;-2.730;2024-02-15T08:09:35;10.45;;;2.65;;
81191;SDS011;70665;47.652;-2.730;2024-02-15T08:12:02;4.70;;;2.53;;
81191;SDS011;70665;47.652;-2.730;2024-02-15T08:14:29;4.97;;;2.42;;
81191;SDS011;70665;47.652;-2.730;2024-02-15T08:16:56;9.20;;;3.00;;
81191;SDS011;70665;47.652;-2.730;2024-02-15T08:19:22;7.10;;;3.35;;
81191;SDS011;70665;47.652;-2.730;2024-02-15T08:21:48;4.70;;;2.30;;
81191;SDS011;70665;47.652;-2.730;2024-02-15T08:24:16;6.18;;;2.50;;
81191;SDS011;70665;47.652;-2.730;2024-02-15T08:26:42;4.30;;;2.50;;
81191;SDS011;70665;47.652;-2.730;2024-02-15T08:29:08;9.43;;;2.55;;
81191;SDS011;70665;47.652;-2.730;2024-02-15T08:31:37;7.38;;;2.65;;
81191;SDS011;70665;47.652;-2.730;2024-02-15T08:34:03;8.05;;;2.58;;
81191;SDS011;70665;47.652;-2.730;2024-02-15T08:36:31;6.78;;;2.78;;
81191;SDS011;70665;47.652;-2.730;2024-02-15T08:38:57;6.18;;;2.63;;
81191;SDS011;70665;47.652;-2.730;2024-02-15T08:43:52;7.95;;;3.60;;
81191;SDS011;70665;47.652;-2.730;2024-02-15T08:46:23;7.95;;;4.10;;
81191;SDS011;70665;47.652;-2.730;2024-02-15T08:48:50;6.18;;;2.63;;
81191;SDS011;70665;47.652;-2.730;2024-02-15T08:51:16;7.63;;;2.90;;
81191;SDS011;70665;47.652;-2.730;2024-02-15T08:53:43;4.40;;;2.30;;
81191;SDS011;70665;47.652;-2.730;2024-02-15T08:56:08;7.28;;;3.33;;
81191;SDS011;70665;47.652;-2.730;2024-02-15T08:58:35;6.28;;;3.13;;
81191;SDS011;70665;47.652;-2.730;2024-02-15T09:01:03;4.47;;;2.30;;
81191;SDS011;70665;47.652;-2.730;2024-02-15T09:03:29;11.98;;;3.05;;
81191;SDS011;70665;47.652;-2.730;2024-02-15T09:05:55;7.25;;;2.92;;
81191;SDS011;70665;47.652;-2.730;2024-02-15T09:10:47;7.35;;;2.33;;
81191;SDS011;70665;47.652;-2.730;2024-02-15T09:13:15;8.73;;;2.60;;
81191;SDS011;70665;47.652;-2.730;2024-02-15T09:15:40;8.77;;;2.72;;
81191;SDS011;70665;47.652;-2.730;2024-02-15T09:20:34;15.02;;;2.80;;
81191;SDS011;70665;47.652;-2.730;2024-02-15T09:23:02;6.03;;;2.50;;
81191;SDS011;70665;47.652;-2.730;2024-02-15T09:25:34;9.95;;;2.42;;
81191;SDS011;70665;47.652;-2.730;2024-02-15T09:28:02;11.40;;;3.47;;
81191;SDS011;70665;47.652;-2.730;2024-02-15T09:30:28;7.90;;;2.92;;
81191;SDS011;70665;47.652;-2.730;2024-02-15T09:32:56;12.73;;;3.42;;
81191;SDS011;70665;47.652;-2.730;2024-02-15T09:35:22;9.95;;;3.00;;
81191;SDS011;70665;47.652;-2.730;2024-02-15T09:40:14;8.40;;;3.30;;
81191;SDS011;70665;47.652;-2.730;2024-02-15T09:42:42;11.30;;;2.78;;
81191;SDS011;70665;47.652;-2.730;2024-02-15T09:45:10;9.38;;;2.97;;
81191;SDS011;70665;47.652;-2.730;2024-02-15T09:47:38;12.77;;;2.40;;
81191;SDS011;70665;47.652;-2.730;2024-02-15T09:50:07;8.57;;;2.42;;
81191;SDS011;70665;47.652;-2.730;2024-02-15T09:52:33;10.63;;;2.90;;
81191;SDS011;70665;47.652;-2.730;2024-02-15T09:55:02;11.00;;;2.95;;
81191;SDS011;70665;47.652;-2.730;2024-02-15T09:57:31;8.60;;;2.88;;
81191;SDS011;70665;47.652;-2.730;2024-02-15T09:59:58;13.30;;;2.78;;
81191;SDS011;70665;47.652;-2.730;2024-02-15T10:02:25;12.85;;;3.10;;
81191;SDS011;70665;47.652;-2.730;2024-02-15T10:04:52;10.27;;;2.95;;
81191;SDS011;70665;47.652;-2.730;2024-02-15T10:07:21;14.65;;;2.83;;
81191;SDS011;70665;47.652;-2.730;2024-02-15T10:09:48;11.48;;;2.95;;
81191;SDS011;70665;47.652;-2.730;2024-02-15T10:14:44;16.35;;;2.80;;
81191;SDS011;70665;47.652;-2.730;2024-02-15T10:17:14;15.00;;;3.85;;
81191;SDS011;70665;47.652;-2.730;2024-02-15T10:19:42;10.05;;;2.55;;
81191;SDS011;70665;47.652;-2.730;2024-02-15T10:22:09;14.38;;;3.08;;
81191;SDS011;70665;47.652;-2.730;2024-02-15T10:24:36;9.70;;;2.58;;
81191;SDS011;70665;47.652;-2.730;2024-02-15T10:27:05;14.00;;;3.03;;
81191;SDS011;70665;47.652;-2.730;2024-02-15T10:29:35;13.20;;;3.17;;
81191;SDS011;70665;47.652;-2.730;2024-02-15T10:32:02;15.77;;;3.33;;
81191;SDS011;70665;47.652;-2.730;2024-02-15T10:34:29;13.30;;;2.83;;
81191;SDS011;70665;47.652;-2.730;2024-02-15T10:37:11;12.18;;;2.72;;
81191;SDS011;70665;47.652;-2.730;2024-02-15T10:39:38;12.88;;;2.85;;
81191;SDS011;70665;47.652;-2.730;2024-02-15T10:44:31;13.35;;;2.92;;
81191;SDS011;70665;47.652;-2.730;2024-02-15T10:46:59;15.48;;;3.08;;
81191;SDS011;70665;47.652;-2.730;2024-02-15T10:49:31;11.80;;;3.42;;
81191;SDS011;70665;47.652;-2.730;2024-02-15T10:55:08;13.75;;;2.60;;
81191;SDS011;70665;47.652;-2.730;2024-02-15T10:57:18;17.02;;;3.13;;
81191;SDS011;70665;47.652;-2.730;2024-02-15T11:00:05;19.55;;;3.00;;
81191;SDS011;70665;47.652;-2.730;2024-02-15T11:02:56;12.75;;;3.15;;
81191;SDS011;70665;47.652;-2.730;2024-02-15T11:05:31;11.85;;;2.55;;
81191;SDS011;70665;47.652;-2.730;2024-02-15T11:08:05;15.60;;;3.55;;
81191;SDS011;70665;47.652;-2.730;2024-02-15T11:10:33;10.50;;;2.20;;
81191;SDS011;70665;47.652;-2.730;2024-02-15T11:13:08;9.93;;;2.80;;
81191;SDS011;70665;47.652;-2.730;2024-02-15T11:23:01;12.57;;;3.33;;
81191;SDS011;70665;47.652;-2.730;2024-02-15T11:25:32;14.38;;;3.00;;
81191;SDS011;70665;47.652;-2.730;2024-02-15T11:30:51;13.35;;;2.90;;
81191;SDS011;70665;47.652;-2.730;2024-02-15T11:36:04;13.35;;;3.35;;
81191;SDS011;70665;47.652;-2.730;2024-02-15T11:38:33;11.57;;;3.08;;
81191;SDS011;70665;47.652;-2.730;2024-02-15T11:41:01;12.90;;;3.05;;
81191;SDS011;70665;47.652;-2.730;2024-02-15T11:46:19;14.32;;;3.05;;
81191;SDS011;70665;47.652;-2.730;2024-02-15T11:48:46;14.20;;;3.05;;
81191;SDS011;70665;47.652;-2.730;2024-02-15T11:51:32;13.25;;;3.20;;
81191;SDS011;70665;47.652;-2.730;2024-02-15T11:54:02;11.25;;;3.05;;
81191;SDS011;70665;47.652;-2.730;2024-02-15T11:56:33;14.60;;;3.50;;
81191;SDS011;70665;47.652;-2.730;2024-02-15T11:59:19;15.77;;;4.10;;
81191;SDS011;70665;47.652;-2.730;2024-02-15T12:01:56;15.25;;;3.00;;
81191;SDS011;70665;47.652;-2.730;2024-02-15T12:04:42;16.88;;;2.70;;
81191;SDS011;70665;47.652;-2.730;2024-02-15T12:07:27;13.70;;;2.88;;
81191;SDS011;70665;47.652;-2.730;2024-02-15T12:10:18;14.18;;;2.97;;
81191;SDS011;70665;47.652;-2.730;2024-02-15T12:13:03;13.65;;;2.97;;
81191;SDS011;70665;47.652;-2.730;2024-02-15T12:16:08;10.77;;;2.95;;
81191;SDS011;70665;47.652;-2.730;2024-02-15T12:18:52;13.07;;;3.08;;
81191;SDS011;70665;47.652;-2.730;2024-02-15T12:21:19;11.18;;;3.08;;
81191;SDS011;70665;47.652;-2.730;2024-02-15T12:23:48;9.98;;;2.58;;
81191;SDS011;70665;47.652;-2.730;2024-02-15T12:26:20;12.65;;;3.00;;
81191;SDS011;70665;47.652;-2.730;2024-02-15T12:28:52;12.75;;;2.40;;
81191;SDS011;70665;47.652;-2.730;2024-02-15T12:31:21;14.55;;;3.10;;
81191;SDS011;70665;47.652;-2.730;2024-02-15T12:33:58;11.75;;;2.88;;
81191;SDS011;70665;47.652;-2.730;2024-02-15T12:36:34;17.77;;;2.83;;
81191;SDS011;70665;47.652;-2.730;2024-02-15T12:39:04;15.90;;;3.03;;
81191;SDS011;70665;47.652;-2.730;2024-02-15T12:41:47;13.43;;;2.42;;
81191;SDS011;70665;47.652;-2.730;2024-02-15T12:44:17;13.13;;;3.38;;
81191;SDS011;70665;47.652;-2.730;2024-02-15T12:46:47;13.07;;;2.97;;
81191;SDS011;70665;47.652;-2.730;2024-02-15T12:54:22;12.43;;;2.75;;
81191;SDS011;70665;47.652;-2.730;2024-02-15T12:56:49;10.88;;;2.83;;
81191;SDS011;70665;47.652;-2.730;2024-02-15T12:59:17;12.57;;;3.40;;
81191;SDS011;70665;47.652;-2.730;2024-02-15T13:01:44;13.13;;;3.20;;
81191;SDS011;70665;47.652;-2.730;2024-02-15T13:04:21;12.30;;;3.17;;
81191;SDS011;70665;47.652;-2.730;2024-02-15T13:06:48;13.15;;;3.53;;
81191;SDS011;70665;47.652;-2.730;2024-02-15T13:11:39;10.50;;;3.28;;
81191;SDS011;70665;47.652;-2.730;2024-02-15T13:14:05;19.60;;;3.30;;
81191;SDS011;70665;47.652;-2.730;2024-02-15T13:16:31;12.32;;;2.75;;
81191;SDS011;70665;47.652;-2.730;2024-02-15T13:18:56;11.38;;;2.72;;
81191;SDS011;70665;47.652;-2.730;2024-02-15T13:21:23;8.93;;;2.72;;
81191;SDS011;70665;47.652;-2.730;2024-02-15T13:23:55;19.38;;;2.78;;
81191;SDS011;70665;47.652;-2.730;2024-02-15T13:26:21;17.13;;;2.47;;
81191;SDS011;70665;47.652;-2.730;2024-02-15T13:28:48;12.15;;;2.75;;
81191;SDS011;70665;47.652;-2.730;2024-02-15T13:31:14;11.70;;;3.03;;
81191;SDS011;70665;47.652;-2.730;2024-02-15T13:33:40;10.15;;;2.60;;
81191;SDS011;70665;47.652;-2.730;2024-02-15T13:36:06;11.05;;;2.90;;
81191;SDS011;70665;47.652;-2.730;2024-02-15T13:38:35;11.73;;;2.70;;
81191;SDS011;70665;47.652;-2.730;2024-02-15T13:41:02;12.35;;;3.05;;
81191;SDS011;70665;47.652;-2.730;2024-02-15T13:43:28;14.95;;;2.63;;
81191;SDS011;70665;47.652;-2.730;2024-02-15T13:45:54;8.98;;;2.60;;
81191;SDS011;70665;47.652;-2.730;2024-02-15T13:50:45;7.68;;;2.20;;
81191;SDS011;70665;47.652;-2.730;2024-02-15T13:53:11;11.35;;;2.58;;
81191;SDS011;70665;47.652;-2.730;2024-02-15T13:55:38;11.82;;;2.55;;
81191;SDS011;70665;47.652;-2.730;2024-02-15T13:58:04;9.50;;;2.67;;
81191;SDS011;70665;47.652;-2.730;2024-02-15T14:00:33;11.98;;;2.55;;
81191;SDS011;70665;47.652;-2.730;2024-02-15T14:05:26;10.05;;;3.33;;
81191;SDS011;70665;47.652;-2.730;2024-02-15T14:07:56;11.48;;;2.30;;
81191;SDS011;70665;47.652;-2.730;2024-02-15T14:10:25;9.07;;;2.40;;
81191;SDS011;70665;47.652;-2.730;2024-02-15T14:12:53;11.30;;;2.45;;
81191;SDS011;70665;47.652;-2.730;2024-02-15T14:15:27;10.60;;;2.33;;
81191;SDS011;70665;47.652;-2.730;2024-02-15T14:17:54;11.75;;;2.60;;
81191;SDS011;70665;47.652;-2.730;2024-02-15T14:20:21;9.93;;;2.17;;
81191;SDS011;70665;47.652;-2.730;2024-02-15T14:22:47;11.10;;;2.78;;
81191;SDS011;70665;47.652;-2.730;2024-02-15T14:25:14;8.13;;;2.50;;
81191;SDS011;70665;47.652;-2.730;2024-02-15T14:27:41;13.90;;;2.70;;
81191;SDS011;70665;47.652;-2.730;2024-02-15T14:30:10;7.07;;;3.20;;
81191;SDS011;70665;47.652;-2.730;2024-02-15T14:32:54;9.60;;;2.30;;
81191;SDS011;70665;47.652;-2.730;2024-02-15T14:35:35;9.45;;;2.75;;
81191;SDS011;70665;47.652;-2.730;2024-02-15T14:38:12;9.98;;;2.20;;
81191;SDS011;70665;47.652;-2.730;2024-02-15T14:40:39;7.75;;;2.05;;
81191;SDS011;70665;47.652;-2.730;2024-02-15T14:43:07;10.38;;;2.72;;
81191;SDS011;70665;47.652;-2.730;2024-02-15T14:45:37;10.70;;;2.42;;
81191;SDS011;70665;47.652;-2.730;2024-02-15T14:48:05;9.70;;;2.67;;
81191;SDS011;70665;47.652;-2.730;2024-02-15T14:50:34;11.82;;;3.83;;
81191;SDS011;70665;47.652;-2.730;2024-02-15T14:53:03;10.48;;;2.42;;
81191;SDS011;70665;47.652;-2.730;2024-02-15T14:55:29;9.65;;;2.45;;
81191;SDS011;70665;47.652;-2.730;2024-02-15T14:57:56;10.27;;;2.53;;
81191;SDS011;70665;47.652;-2.730;2024-02-15T15:00:22;11.38;;;2.85;;
81191;SDS011;70665;47.652;-2.730;2024-02-15T15:02:51;7.78;;;2.55;;
81191;SDS011;70665;47.652;-2.730;2024-02-15T15:05:17;9.65;;;2.72;;
81191;SDS011;70665;47.652;-2.730;2024-02-15T15:08:01;9.20;;;2.75;;
81191;SDS011;70665;47.652;-2.730;2024-02-15T15:10:46;6.80;;;2.65;;
81191;SDS011;70665;47.652;-2.730;2024-02-15T15:13:34;11.93;;;2.60;;
81191;SDS011;70665;47.652;-2.730;2024-02-15T15:16:00;7.13;;;2.47;;
81191;SDS011;70665;47.652;-2.730;2024-02-15T15:18:27;10.98;;;2.97;;
81191;SDS011;70665;47.652;-2.730;2024-02-15T15:20:57;7.72;;;2.70;;
81191;SDS011;70665;47.652;-2.730;2024-02-15T15:23:24;11.10;;;2.70;;
81191;SDS011;70665;47.652;-2.730;2024-02-15T15:25:51;8.95;;;3.00;;
81191;SDS011;70665;47.652;-2.730;2024-02-15T15:30:43;8.15;;;2.53;;
81191;SDS011;70665;47.652;-2.730;2024-02-15T15:33:13;7.72;;;2.55;;
81191;SDS011;70665;47.652;-2.730;2024-02-15T15:35:40;9.68;;;2.67;;
81191;SDS011;70665;47.652;-2.730;2024-02-15T15:38:06;9.63;;;2.80;;
81191;SDS011;70665;47.652;-2.730;2024-02-15T15:40:31;6.60;;;2.33;;
81191;SDS011;70665;47.652;-2.730;2024-02-15T15:45:23;8.85;;;2.15;;
81191;SDS011;70665;47.652;-2.730;2024-02-15T15:47:50;6.35;;;2.33;;
81191;SDS011;70665;47.652;-2.730;2024-02-15T15:52:42;8.15;;;2.53;;
81191;SDS011;70665;47.652;-2.730;2024-02-15T15:55:09;8.80;;;2.40;;
81191;SDS011;70665;47.652;-2.730;2024-02-15T15:57:39;7.38;;;2.60;;
81191;SDS011;70665;47.652;-2.730;2024-02-15T16:00:09;7.20;;;2.47;;
81191;SDS011;70665;47.652;-2.730;2024-02-15T16:02:44;5.95;;;2.55;;
81191;SDS011;70665;47.652;-2.730;2024-02-15T16:05:13;8.05;;;2.33;;
81191;SDS011;70665;47.652;-2.730;2024-02-15T16:07:41;5.05;;;2.30;;
81191;SDS011;70665;47.652;-2.730;2024-02-15T16:10:07;7.32;;;2.58;;
81191;SDS011;70665;47.652;-2.730;2024-02-15T16:12:36;9.15;;;3.08;;
81191;SDS011;70665;47.652;-2.730;2024-02-15T16:15:06;10.95;;;3.40;;
81191;SDS011;70665;47.652;-2.730;2024-02-15T16:17:34;6.65;;;2.75;;
81191;SDS011;70665;47.652;-2.730;2024-02-15T16:20:03;10.00;;;2.85;;
81191;SDS011;70665;47.652;-2.730;2024-02-15T16:22:34;8.25;;;2.80;;
81191;SDS011;70665;47.652;-2.730;2024-02-15T16:25:03;6.88;;;3.00;;
81191;SDS011;70665;47.652;-2.730;2024-02-15T16:27:40;9.90;;;2.90;;
81191;SDS011;70665;47.652;-2.730;2024-02-15T16:30:10;6.22;;;2.83;;
81191;SDS011;70665;47.652;-2.730;2024-02-15T16:32:36;9.43;;;3.30;;